Time;durP1;ratioP1;P1;durP2;ratioP2;P2;SDS_P1;SDS_P2;PMS_P1;PMS_P2;Temp;Humidity;BMP_temperature;BMP_pressure;BME280_temperature;BME280_humidity;BME280_pressure;Samples;Min_cycle;Max_cycle;Signal;HPM_P1;HPM_P2
2023/05/19 00:02:19;;;;;;;7.17;3.63;;;;;;;;;;4359729;32;318268;-79
2023/05/19 00:04:47;;;;;;;5.17;2.93;;;;;;;;;;4369717;32;317204;-81
2023/05/19 00:07:17;;;;;;;3.87;2.83;;;;;;;;;;4358290;32;317333;-79
2023/05/19 00:09:44;;;;;;;5.57;3.00;;;;;;;;;;4369358;32;316600;-80
2023/05/19 00:12:14;;;;;;;3.93;2.57;;;;;;;;;;4343596;32;336097;-79
2023/05/19 00:14:41;;;;;;;3.80;2.63;;;;;;;;;;4339128;32;317616;-80
2023/05/19 00:17:09;;;;;;;3.57;2.40;;;;;;;;;;4328897;32;317591;-79
2023/05/19 00:19:36;;;;;;;4.80;2.50;;;;;;;;;;4339644;32;317299;-80
2023/05/19 00:22:03;;;;;;;3.37;2.97;;;;;;;;;;4329340;32;316798;-80
2023/05/19 00:24:30;;;;;;;5.83;2.90;;;;;;;;;;4346691;32;329053;-80
2023/05/19 00:26:57;;;;;;;4.47;2.77;;;;;;;;;;4354213;32;317208;-78
2023/05/19 00:29:25;;;;;;;6.63;2.90;;;;;;;;;;4343215;32;317350;-80
2023/05/19 00:31:51;;;;;;;6.80;2.50;;;;;;;;;;4353072;32;317150;-79
2023/05/19 00:34:18;;;;;;;4.07;2.27;;;;;;;;;;4349023;32;327875;-79
2023/05/19 00:36:45;;;;;;;4.40;2.87;;;;;;;;;;4364735;32;317219;-80
2023/05/19 00:39:11;;;;;;;4.23;2.43;;;;;;;;;;4357873;32;317165;-79
2023/05/19 00:41:39;;;;;;;7.50;2.23;;;;;;;;;;4367398;32;316901;-80
2023/05/19 00:44:07;;;;;;;3.77;2.60;;;;;;;;;;4355848;32;342777;-80
2023/05/19 00:46:35;;;;;;;6.67;2.57;;;;;;;;;;4367880;32;317230;-81
2023/05/19 00:49:01;;;;;;;4.33;2.90;;;;;;;;;;4358066;32;317588;-79
2023/05/19 00:51:30;;;;;;;7.93;2.50;;;;;;;;;;4366613;32;350555;-80
2023/05/19 00:53:57;;;;;;;3.97;2.83;;;;;;;;;;4367418;32;329554;-80
2023/05/19 00:56:23;;;;;;;5.40;2.50;;;;;;;;;;4358054;32;317133;-80
2023/05/19 00:58:51;;;;;;;6.47;2.80;;;;;;;;;;4370305;32;316590;-79
2023/05/19 01:01:20;;;;;;;10.90;3.53;;;;;;;;;;4366768;32;316564;-80
2023/05/19 01:03:48;;;;;;;5.80;4.40;;;;;;;;;;4386464;32;316677;-81
2023/05/19 01:06:17;;;;;;;4.53;2.77;;;;;;;;;;4373288;32;316076;-80
2023/05/19 01:08:44;;;;;;;7.63;3.03;;;;;;;;;;4378347;32;316398;-80
2023/05/19 01:11:11;;;;;;;7.80;3.73;;;;;;;;;;4360424;32;317217;-80
2023/05/19 01:13:38;;;;;;;2.43;2.10;;;;;;;;;;4352354;32;317543;-79
2023/05/19 01:16:11;;;;;;;5.43;2.53;;;;;;;;;;4342664;32;317262;-80
2023/05/19 01:18:44;;;;;;;4.70;2.60;;;;;;;;;;4352115;32;317168;-79
2023/05/19 01:21:48;;;;;;;3.27;2.53;;;;;;;;;;4343899;32;317202;-79
2023/05/19 01:24:46;;;;;;;5.13;2.83;;;;;;;;;;4343519;32;317134;-80
2023/05/19 01:27:35;;;;;;;3.90;2.57;;;;;;;;;;4338869;32;317107;-79
2023/05/19 01:30:25;;;;;;;5.67;2.90;;;;;;;;;;4341253;32;317675;-79
2023/05/19 01:32:54;;;;;;;3.50;2.37;;;;;;;;;;4353508;32;317475;-80
2023/05/19 01:35:23;;;;;;;4.60;2.80;;;;;;;;;;4343417;32;317456;-79
2023/05/19 01:37:51;;;;;;;6.73;2.20;;;;;;;;;;4353175;32;316992;-80
2023/05/19 01:40:19;;;;;;;2.17;1.90;;;;;;;;;;4343302;32;317380;-79
2023/05/19 01:42:47;;;;;;;6.93;2.33;;;;;;;;;;4353146;32;317108;-79
2023/05/19 01:45:13;;;;;;;4.27;2.20;;;;;;;;;;4342567;32;316589;-79
2023/05/19 01:47:44;;;;;;;4.53;2.10;;;;;;;;;;4353462;32;317273;-79
2023/05/19 01:50:11;;;;;;;9.47;2.40;;;;;;;;;;4343526;32;317642;-79
2023/05/19 01:52:37;;;;;;;7.47;2.17;;;;;;;;;;4352932;32;320769;-79
2023/05/19 01:55:05;;;;;;;7.23;2.50;;;;;;;;;;4343261;32;317234;-79
2023/05/19 01:57:39;;;;;;;4.93;2.70;;;;;;;;;;4351484;32;317202;-79
2023/05/19 02:00:14;;;;;;;6.30;3.13;;;;;;;;;;4343396;32;317311;-79
2023/05/19 02:03:03;;;;;;;3.10;2.33;;;;;;;;;;4352283;32;317482;-79
2023/05/19 02:05:38;;;;;;;3.33;2.37;;;;;;;;;;4339297;32;416630;-79
2023/05/19 02:08:12;;;;;;;3.50;2.37;;;;;;;;;;4339753;32;350946;-80
2023/05/19 02:10:42;;;;;;;6.30;2.43;;;;;;;;;;4352721;32;317302;-79
2023/05/19 02:13:12;;;;;;;10.37;3.30;;;;;;;;;;4341817;32;316769;-79
2023/05/19 02:15:42;;;;;;;5.23;2.83;;;;;;;;;;4351312;32;318471;-79
2023/05/19 02:18:12;;;;;;;5.73;2.87;;;;;;;;;;4341848;32;317893;-79
2023/05/19 02:20:39;;;;;;;4.50;3.10;;;;;;;;;;4351327;32;329836;-79
2023/05/19 02:23:05;;;;;;;8.13;3.80;;;;;;;;;;4342734;32;317448;-79
2023/05/19 02:25:32;;;;;;;7.33;4.37;;;;;;;;;;4352547;32;317452;-80
2023/05/19 02:27:59;;;;;;;8.73;5.37;;;;;;;;;;4351260;32;317162;-80
2023/05/19 02:30:25;;;;;;;8.17;5.27;;;;;;;;;;4339045;32;413878;-79
2023/05/19 02:32:53;;;;;;;4.63;3.13;;;;;;;;;;4352807;32;317323;-79
2023/05/19 02:35:21;;;;;;;5.43;3.17;;;;;;;;;;4342977;32;317827;-79
2023/05/19 02:37:47;;;;;;;4.90;3.07;;;;;;;;;;4351278;32;317235;-79
2023/05/19 02:40:14;;;;;;;3.20;2.33;;;;;;;;;;4342546;32;317433;-79
2023/05/19 02:42:41;;;;;;;4.83;3.00;;;;;;;;;;4352052;32;316624;-79
2023/05/19 02:45:08;;;;;;;5.17;3.40;;;;;;;;;;4340857;32;350831;-79
2023/05/19 02:47:35;;;;;;;4.27;3.00;;;;;;;;;;4352550;32;316870;-79
2023/05/19 02:50:02;;;;;;;7.63;4.00;;;;;;;;;;4341813;32;317455;-79
2023/05/19 02:52:30;;;;;;;13.63;3.43;;;;;;;;;;4351416;32;317407;-82
2023/05/19 02:54:57;;;;;;;10.70;2.93;;;;;;;;;;4351460;32;318349;-79
2023/05/19 02:57:23;;;;;;;5.63;3.43;;;;;;;;;;4342145;32;318698;-79
2023/05/19 02:59:50;;;;;;;3.77;3.10;;;;;;;;;;4352436;32;317427;-79
2023/05/19 03:02:17;;;;;;;4.70;2.87;;;;;;;;;;4341432;32;317193;-79
2023/05/19 03:04:44;;;;;;;6.50;3.43;;;;;;;;;;4352486;32;317298;-80
2023/05/19 03:07:12;;;;;;;6.60;2.97;;;;;;;;;;4341439;32;317351;-79
2023/05/19 03:09:40;;;;;;;6.57;2.70;;;;;;;;;;4352454;32;316581;-80
2023/05/19 03:12:07;;;;;;;2.90;2.30;;;;;;;;;;4341867;32;317532;-79
2023/05/19 03:14:36;;;;;;;7.97;2.20;;;;;;;;;;4351591;32;339490;-80
2023/05/19 03:17:03;;;;;;;3.23;2.50;;;;;;;;;;4341380;32;317302;-79
2023/05/19 03:19:31;;;;;;;3.23;2.27;;;;;;;;;;4353996;32;317408;-79
2023/05/19 03:21:57;;;;;;;3.57;2.20;;;;;;;;;;4353876;32;317376;-82
2023/05/19 03:24:24;;;;;;;5.20;2.53;;;;;;;;;;4344840;32;317353;-79
2023/05/19 03:26:52;;;;;;;12.33;2.17;;;;;;;;;;4353672;32;317243;-80
2023/05/19 03:29:19;;;;;;;7.17;2.50;;;;;;;;;;4345041;32;318310;-80
2023/05/19 03:31:46;;;;;;;8.73;2.87;;;;;;;;;;4353662;32;317284;-81
2023/05/19 03:34:12;;;;;;;10.10;3.33;;;;;;;;;;4345124;32;317294;-80
2023/05/19 03:36:39;;;;;;;4.33;3.13;;;;;;;;;;4354483;32;318431;-80
2023/05/19 03:39:06;;;;;;;8.90;4.93;;;;;;;;;;4344071;32;317385;-80
2023/05/19 03:41:32;;;;;;;12.80;6.30;;;;;;;;;;4353893;32;317214;-81
2023/05/19 03:44:00;;;;;;;21.83;12.23;;;;;;;;;;4354524;32;318494;-80
2023/05/19 03:46:27;;;;;;;18.80;12.13;;;;;;;;;;4341531;32;418444;-81
2023/05/19 03:48:54;;;;;;;23.70;12.17;;;;;;;;;;4353392;32;319379;-80
2023/05/19 03:51:20;;;;;;;18.10;10.13;;;;;;;;;;4344368;32;319884;-80
2023/05/19 03:53:47;;;;;;;19.93;11.50;;;;;;;;;;4354209;32;319287;-81
2023/05/19 03:56:15;;;;;;;27.67;11.77;;;;;;;;;;4343290;32;319846;-80
2023/05/19 03:58:43;;;;;;;19.93;10.47;;;;;;;;;;4352930;32;319691;-82
2023/05/19 04:01:12;;;;;;;20.67;10.83;;;;;;;;;;4344273;32;319625;-81
2023/05/19 04:03:38;;;;;;;18.80;11.60;;;;;;;;;;4354061;32;319413;-81
2023/05/19 04:06:05;;;;;;;19.97;10.60;;;;;;;;;;4343562;32;319904;-81
2023/05/19 04:08:32;;;;;;;24.60;9.77;;;;;;;;;;4352520;32;319221;-79
2023/05/19 04:10:58;;;;;;;16.17;8.23;;;;;;;;;;4352818;32;317876;-80
2023/05/19 04:13:25;;;;;;;13.03;7.97;;;;;;;;;;4343668;32;317870;-80
2023/05/19 04:15:52;;;;;;;16.00;8.20;;;;;;;;;;4353454;32;318541;-80
2023/05/19 04:18:20;;;;;;;15.03;8.57;;;;;;;;;;4342949;32;318400;-80
2023/05/19 04:20:47;;;;;;;17.30;8.03;;;;;;;;;;4353132;32;318349;-82
2023/05/19 04:23:13;;;;;;;28.77;10.23;;;;;;;;;;4344005;32;318455;-81
2023/05/19 04:25:41;;;;;;;41.70;21.53;;;;;;;;;;4354002;32;319932;-80
2023/05/19 04:28:07;;;;;;;33.97;13.77;;;;;;;;;;4343668;32;319361;-80
2023/05/19 04:30:35;;;;;;;20.23;13.93;;;;;;;;;;4352123;32;319920;-80
2023/05/19 04:33:03;;;;;;;19.80;12.50;;;;;;;;;;4342708;32;319570;-82
2023/05/19 04:35:31;;;;;;;16.33;10.23;;;;;;;;;;4352593;32;320003;-82
2023/05/19 04:37:58;;;;;;;14.20;8.50;;;;;;;;;;4352485;32;319495;-80
2023/05/19 04:40:25;;;;;;;14.43;6.60;;;;;;;;;;4343835;32;318489;-79
2023/05/19 04:42:52;;;;;;;11.07;7.33;;;;;;;;;;4349194;32;318554;-80
2023/05/19 04:45:19;;;;;;;11.27;7.90;;;;;;;;;;4343925;32;318595;-81
2023/05/19 04:47:46;;;;;;;10.03;6.47;;;;;;;;;;4352467;32;318580;-80
2023/05/19 04:50:13;;;;;;;14.27;6.77;;;;;;;;;;4343683;32;318216;-79
2023/05/19 04:52:44;;;;;;;14.90;6.03;;;;;;;;;;4352235;32;317533;-80
2023/05/19 04:55:11;;;;;;;17.93;6.50;;;;;;;;;;4342577;32;358221;-82
2023/05/19 04:57:38;;;;;;;8.70;4.97;;;;;;;;;;4353179;32;318297;-81
2023/05/19 05:00:07;;;;;;;20.37;5.80;;;;;;;;;;4342844;32;316578;-79
2023/05/19 05:02:34;;;;;;;11.13;6.30;;;;;;;;;;4354631;32;318332;-79
2023/05/19 05:05:01;;;;;;;16.77;7.40;;;;;;;;;;4346202;32;318871;-82
2023/05/19 05:07:28;;;;;;;18.17;9.80;;;;;;;;;;4364949;32;318646;-80
2023/05/19 05:09:56;;;;;;;20.17;8.90;;;;;;;;;;4372090;32;316546;-79
2023/05/19 05:12:23;;;;;;;18.27;8.30;;;;;;;;;;4358073;32;317906;-80
2023/05/19 05:14:51;;;;;;;17.07;8.63;;;;;;;;;;4363269;32;318019;-80
2023/05/19 05:17:18;;;;;;;14.70;6.53;;;;;;;;;;4353578;32;317673;-80
2023/05/19 05:19:45;;;;;;;16.47;7.17;;;;;;;;;;4354017;32;317603;-83
2023/05/19 05:22:12;;;;;;;12.50;7.73;;;;;;;;;;4341936;32;342321;-80
2023/05/19 05:24:39;;;;;;;18.53;8.10;;;;;;;;;;4351942;32;318497;-80
2023/05/19 05:27:08;;;;;;;14.83;8.67;;;;;;;;;;4342958;32;318238;-79
2023/05/19 05:29:35;;;;;;;17.23;8.90;;;;;;;;;;4353026;32;317531;-79
2023/05/19 05:32:02;;;;;;;15.83;10.27;;;;;;;;;;4342008;32;317786;-80
2023/05/19 05:34:29;;;;;;;19.23;11.70;;;;;;;;;;4345966;32;319569;-81
2023/05/19 05:36:56;;;;;;;25.77;11.83;;;;;;;;;;4352636;32;318974;-80
2023/05/19 05:39:22;;;;;;;17.47;10.70;;;;;;;;;;4330937;32;319398;-80
2023/05/19 05:41:49;;;;;;;16.77;9.33;;;;;;;;;;4351223;32;318474;-82
2023/05/19 05:44:17;;;;;;;22.70;10.13;;;;;;;;;;4329939;32;318614;-80
2023/05/19 05:46:44;;;;;;;20.37;9.27;;;;;;;;;;4351919;32;319893;-81
2023/05/19 05:49:12;;;;;;;19.67;9.47;;;;;;;;;;4331121;32;318422;-80
2023/05/19 05:51:39;;;;;;;13.47;8.20;;;;;;;;;;4348948;32;317727;-82
2023/05/19 05:54:09;;;;;;;14.83;8.53;;;;;;;;;;4334022;32;318254;-80
2023/05/19 05:56:36;;;;;;;14.40;7.60;;;;;;;;;;4346393;32;318358;-80
2023/05/19 05:59:03;;;;;;;11.67;6.40;;;;;;;;;;4338381;32;317911;-80
2023/05/19 06:01:31;;;;;;;11.50;6.60;;;;;;;;;;4350769;32;318661;-81
2023/05/19 06:03:58;;;;;;;11.57;6.20;;;;;;;;;;4350233;32;317700;-78
2023/05/19 06:06:24;;;;;;;8.50;5.57;;;;;;;;;;4342733;32;318583;-79
2023/05/19 06:08:51;;;;;;;10.63;5.47;;;;;;;;;;4352708;32;317412;-78
2023/05/19 06:11:18;;;;;;;8.00;5.20;;;;;;;;;;4334032;32;327573;-78
2023/05/19 06:13:45;;;;;;;9.90;7.57;;;;;;;;;;4339294;32;325467;-78
2023/05/19 06:16:12;;;;;;;10.33;6.93;;;;;;;;;;4326562;32;317189;-78
2023/05/19 06:18:40;;;;;;;14.17;10.03;;;;;;;;;;4336085;32;318572;-79
2023/05/19 06:21:08;;;;;;;10.77;6.28;;;;;;;;;;4326948;32;319046;-79
2023/05/19 06:23:35;;;;;;;5.30;4.70;;;;;;;;;;4336470;32;318283;-78
2023/05/19 06:26:02;;;;;;;12.47;6.13;;;;;;;;;;4326252;32;317288;-80
2023/05/19 06:28:29;;;;;;;7.43;5.10;;;;;;;;;;4336526;32;318230;-80
2023/05/19 06:30:55;;;;;;;13.00;5.47;;;;;;;;;;4334531;32;316729;-79
2023/05/19 06:33:22;;;;;;;7.73;3.97;;;;;;;;;;4328902;32;356720;-80
2023/05/19 06:35:50;;;;;;;7.07;5.20;;;;;;;;;;4351775;32;317256;-79
2023/05/19 06:38:16;;;;;;;8.00;5.20;;;;;;;;;;4340692;32;317279;-80
2023/05/19 06:40:43;;;;;;;10.35;4.90;;;;;;;;;;4337757;32;316833;-80
2023/05/19 06:43:10;;;;;;;7.87;4.77;;;;;;;;;;4322935;33;318278;-79
2023/05/19 06:45:37;;;;;;;9.67;5.90;;;;;;;;;;4332170;33;317286;-80
2023/05/19 06:48:04;;;;;;;6.07;4.47;;;;;;;;;;4330273;32;317905;-80
2023/05/19 06:50:30;;;;;;;12.03;5.90;;;;;;;;;;4337645;32;317193;-80
2023/05/19 06:52:58;;;;;;;11.20;4.83;;;;;;;;;;4336350;32;318290;-79
2023/05/19 06:55:25;;;;;;;8.77;4.80;;;;;;;;;;4328584;32;318560;-79
2023/05/19 06:57:52;;;;;;;7.62;4.78;;;;;;;;;;4338824;32;317373;-79
2023/05/19 07:00:19;;;;;;;6.97;5.07;;;;;;;;;;4330783;32;317590;-81
2023/05/19 07:02:45;;;;;;;6.60;4.97;;;;;;;;;;4340260;32;317321;-80
2023/05/19 07:05:12;;;;;;;9.43;5.25;;;;;;;;;;4329646;32;317220;-79
2023/05/19 07:07:39;;;;;;;5.25;4.75;;;;;;;;;;4339144;32;317281;-79
2023/05/19 07:10:08;;;;;;;7.78;4.90;;;;;;;;;;4330568;32;317184;-80
2023/05/19 07:12:34;;;;;;;5.07;4.57;;;;;;;;;;4321700;33;317376;-79
2023/05/19 07:15:01;;;;;;;6.07;4.70;;;;;;;;;;4326427;32;317612;-82
2023/05/19 07:17:28;;;;;;;6.70;4.50;;;;;;;;;;4338715;32;317341;-80
2023/05/19 07:19:55;;;;;;;7.60;5.13;;;;;;;;;;4340300;32;317150;-80
2023/05/19 07:22:22;;;;;;;8.23;6.12;;;;;;;;;;4330158;32;317383;-80
2023/05/19 07:24:49;;;;;;;7.10;5.35;;;;;;;;;;4338850;32;316635;-80
2023/05/19 07:27:17;;;;;;;15.68;6.45;;;;;;;;;;4328763;32;317084;-79
2023/05/19 07:29:44;;;;;;;12.50;6.07;;;;;;;;;;4338100;32;318436;-79
2023/05/19 07:32:11;;;;;;;6.57;5.72;;;;;;;;;;4328550;32;318326;-78
2023/05/19 07:34:37;;;;;;;11.20;6.43;;;;;;;;;;4329719;32;318245;-78
2023/05/19 07:37:04;;;;;;;7.85;5.87;;;;;;;;;;4320999;32;318198;-77
2023/05/19 07:39:31;;;;;;;7.40;5.53;;;;;;;;;;4336713;32;317326;-77
2023/05/19 07:41:58;;;;;;;8.70;5.97;;;;;;;;;;4335022;32;317307;-78
2023/05/19 07:44:26;;;;;;;7.73;5.87;;;;;;;;;;4341549;32;317291;-78
2023/05/19 07:46:53;;;;;;;7.70;5.12;;;;;;;;;;4329292;32;317343;-79
2023/05/19 07:49:20;;;;;;;12.02;5.95;;;;;;;;;;4336593;32;317223;-80
2023/05/19 07:51:47;;;;;;;17.52;6.75;;;;;;;;;;4337843;32;318266;-83
2023/05/19 07:54:13;;;;;;;11.27;5.85;;;;;;;;;;4329800;32;318311;-80
2023/05/19 07:56:40;;;;;;;13.35;5.40;;;;;;;;;;4338135;32;318279;-79
2023/05/19 07:59:08;;;;;;;8.15;6.55;;;;;;;;;;4328051;32;318132;-78
2023/05/19 08:01:36;;;;;;;14.80;6.25;;;;;;;;;;4337533;32;317324;-77
2023/05/19 08:04:02;;;;;;;9.32;6.35;;;;;;;;;;4329486;32;318118;-78
2023/05/19 08:06:30;;;;;;;11.88;5.85;;;;;;;;;;4337151;32;316817;-79
2023/05/19 08:08:57;;;;;;;11.55;6.55;;;;;;;;;;4329430;32;318135;-80
2023/05/19 08:11:23;;;;;;;14.73;7.37;;;;;;;;;;4339445;32;318332;-82
2023/05/19 08:13:50;;;;;;;10.10;6.68;;;;;;;;;;4330437;32;318283;-78
2023/05/19 08:16:17;;;;;;;11.73;6.57;;;;;;;;;;4338873;32;318355;-78
2023/05/19 08:18:45;;;;;;;18.50;6.70;;;;;;;;;;4339135;32;318151;-81
2023/05/19 08:21:11;;;;;;;12.75;6.72;;;;;;;;;;4329439;32;318669;-79
2023/05/19 08:23:38;;;;;;;11.63;7.00;;;;;;;;;;4337716;32;318551;-78
2023/05/19 08:26:05;;;;;;;14.40;6.00;;;;;;;;;;4328986;32;318274;-78
2023/05/19 08:28:31;;;;;;;10.45;7.15;;;;;;;;;;4338792;32;318267;-80
2023/05/19 08:30:58;;;;;;;11.85;7.22;;;;;;;;;;4327935;32;318601;-77
2023/05/19 08:33:25;;;;;;;12.70;6.53;;;;;;;;;;4338866;32;318268;-77
2023/05/19 08:35:54;;;;;;;9.35;6.93;;;;;;;;;;4328839;32;318121;-78
2023/05/19 08:38:20;;;;;;;11.80;6.75;;;;;;;;;;4338329;32;317150;-78
2023/05/19 08:40:47;;;;;;;14.73;6.90;;;;;;;;;;4337218;32;318264;-81
2023/05/19 08:43:14;;;;;;;9.77;7.05;;;;;;;;;;4325145;32;407339;-79
2023/05/19 08:45:43;;;;;;;9.85;7.22;;;;;;;;;;4338066;32;330067;-78
2023/05/19 08:48:10;;;;;;;13.90;7.80;;;;;;;;;;4328139;32;322276;-80
2023/05/19 08:50:40;;;;;;;12.23;6.95;;;;;;;;;;4339027;32;318328;-81
2023/05/19 08:53:14;;;;;;;7.95;6.50;;;;;;;;;;4326863;32;350052;-79
2023/05/19 08:55:43;;;;;;;8.05;7.03;;;;;;;;;;4337080;32;317474;-78
2023/05/19 08:58:12;;;;;;;9.02;7.35;;;;;;;;;;4327339;32;317327;-80
2023/05/19 09:00:39;;;;;;;16.30;7.32;;;;;;;;;;4338386;32;317314;-79
2023/05/19 09:03:07;;;;;;;8.10;7.07;;;;;;;;;;4328634;32;318234;-80
2023/05/19 09:05:33;;;;;;;9.90;7.25;;;;;;;;;;4337735;32;317425;-79
2023/05/19 09:08:01;;;;;;;10.73;7.80;;;;;;;;;;4328133;32;317268;-81
2023/05/19 09:10:29;;;;;;;9.35;6.87;;;;;;;;;;4338148;32;341806;-81
2023/05/19 09:12:56;;;;;;;8.17;7.33;;;;;;;;;;4335788;32;350494;-80
2023/05/19 09:15:26;;;;;;;13.43;6.68;;;;;;;;;;4352819;32;317356;-78
2023/05/19 09:18:06;;;;;;;14.02;7.15;;;;;;;;;;4338348;32;358088;-79
2023/05/19 09:20:32;;;;;;;11.63;7.78;;;;;;;;;;4352774;32;316764;-78
2023/05/19 09:22:59;;;;;;;13.20;7.33;;;;;;;;;;4335891;32;327317;-78
2023/05/19 09:25:26;;;;;;;9.45;7.15;;;;;;;;;;4336411;32;317460;-79
2023/05/19 09:27:55;;;;;;;14.27;9.23;;;;;;;;;;4327705;32;317255;-83
2023/05/19 09:30:23;;;;;;;15.85;8.18;;;;;;;;;;4337948;32;318260;-80
2023/05/19 09:32:51;;;;;;;15.80;7.57;;;;;;;;;;4325304;32;331173;-78
2023/05/19 09:35:19;;;;;;;9.30;7.37;;;;;;;;;;4335014;32;318063;-77
2023/05/19 09:37:48;;;;;;;10.05;7.82;;;;;;;;;;4336073;32;317224;-77
2023/05/19 09:40:15;;;;;;;10.63;7.37;;;;;;;;;;4326086;32;318234;-77
2023/05/19 09:42:43;;;;;;;10.48;7.97;;;;;;;;;;4333664;32;318407;-77
2023/05/19 09:45:11;;;;;;;10.45;8.63;;;;;;;;;;4323025;32;318840;-80
2023/05/19 09:47:39;;;;;;;13.10;8.20;;;;;;;;;;4334312;32;318204;-79
2023/05/19 09:50:07;;;;;;;10.93;8.03;;;;;;;;;;4323695;32;355094;-79
2023/05/19 09:52:37;;;;;;;14.05;7.65;;;;;;;;;;4321528;32;318218;-79
2023/05/19 09:55:06;;;;;;;14.10;8.20;;;;;;;;;;4336296;32;318548;-80
2023/05/19 09:57:37;;;;;;;10.15;7.30;;;;;;;;;;4325617;32;359400;-82
2023/05/19 10:00:13;;;;;;;13.15;7.70;;;;;;;;;;4336514;32;318288;-83
2023/05/19 10:02:43;;;;;;;11.43;8.15;;;;;;;;;;4329707;32;419620;-82
2023/05/19 10:05:15;;;;;;;11.88;8.15;;;;;;;;;;4338159;32;318386;-81
2023/05/19 10:07:44;;;;;;;14.32;7.62;;;;;;;;;;4330259;32;418175;-81
2023/05/19 10:10:12;;;;;;;11.80;8.93;;;;;;;;;;4336966;32;317905;-80
2023/05/19 10:12:40;;;;;;;13.77;8.23;;;;;;;;;;4324828;32;417370;-77
2023/05/19 10:15:10;;;;;;;13.43;9.20;;;;;;;;;;4336677;32;318536;-77
2023/05/19 10:17:38;;;;;;;15.40;7.62;;;;;;;;;;4326459;32;322711;-82
2023/05/19 10:20:09;;;;;;;15.45;8.63;;;;;;;;;;4337813;32;318001;-80
2023/05/19 10:22:37;;;;;;;11.40;8.13;;;;;;;;;;4327787;32;320053;-77
2023/05/19 10:25:04;;;;;;;13.93;7.95;;;;;;;;;;4336621;32;318548;-78
2023/05/19 10:27:33;;;;;;;15.52;8.15;;;;;;;;;;4326524;32;318406;-85
2023/05/19 10:30:05;;;;;;;12.75;7.57;;;;;;;;;;4336408;32;318692;-85
2023/05/19 10:32:33;;;;;;;10.50;8.00;;;;;;;;;;4326195;32;318543;-85
2023/05/19 10:35:30;;;;;;;14.93;8.00;;;;;;;;;;4340036;32;318121;-88
2023/05/19 10:38:08;;;;;;;10.43;7.53;;;;;;;;;;4325196;32;419227;-78
2023/05/19 10:40:38;;;;;;;12.85;7.50;;;;;;;;;;4326491;33;318662;-87
2023/05/19 10:43:20;;;;;;;12.20;7.25;;;;;;;;;;4337194;32;318392;-85
2023/05/19 10:45:48;;;;;;;11.85;8.02;;;;;;;;;;4324659;32;419057;-81
2023/05/19 10:48:16;;;;;;;11.82;7.80;;;;;;;;;;4327396;33;318251;-80
2023/05/19 10:50:45;;;;;;;11.88;7.57;;;;;;;;;;4336330;32;317762;-87
2023/05/19 10:53:17;;;;;;;14.30;8.70;;;;;;;;;;4337057;32;318463;-80
2023/05/19 10:55:50;;;;;;;10.40;7.35;;;;;;;;;;4323269;32;419498;-81
2023/05/19 10:58:49;;;;;;;14.60;7.90;;;;;;;;;;4327438;32;318588;-80
2023/05/19 11:01:17;;;;;;;12.80;8.05;;;;;;;;;;4325832;32;318593;-79
2023/05/19 11:03:48;;;;;;;8.32;7.10;;;;;;;;;;4335892;32;337415;-78
2023/05/19 11:06:19;;;;;;;12.20;6.57;;;;;;;;;;4325607;32;322178;-81
2023/05/19 11:08:52;;;;;;;11.82;6.95;;;;;;;;;;4336025;32;318061;-82
2023/05/19 11:11:19;;;;;;;12.60;6.82;;;;;;;;;;4325866;32;318468;-80
2023/05/19 11:13:48;;;;;;;13.48;6.97;;;;;;;;;;4339581;32;318071;-80
2023/05/19 11:16:18;;;;;;;13.60;6.68;;;;;;;;;;4332336;32;318222;-79
2023/05/19 11:18:48;;;;;;;9.02;8.00;;;;;;;;;;4351697;32;318465;-80
2023/05/19 11:21:15;;;;;;;9.07;7.53;;;;;;;;;;4341026;32;317526;-79
2023/05/19 11:23:42;;;;;;;9.23;7.80;;;;;;;;;;4351574;32;324147;-79
2023/05/19 11:26:10;;;;;;;11.55;7.72;;;;;;;;;;4351221;32;317636;-79
2023/05/19 11:28:38;;;;;;;11.65;7.22;;;;;;;;;;4341669;32;318406;-79
2023/05/19 11:31:09;;;;;;;12.25;7.47;;;;;;;;;;4350401;32;318193;-78
2023/05/19 11:33:36;;;;;;;11.68;7.75;;;;;;;;;;4329980;32;322654;-79
2023/05/19 11:36:04;;;;;;;9.95;7.57;;;;;;;;;;4337097;32;318267;-79
2023/05/19 11:38:32;;;;;;;15.50;7.18;;;;;;;;;;4326735;32;351036;-81
2023/05/19 11:40:58;;;;;;;12.30;7.50;;;;;;;;;;4344827;32;318104;-81
2023/05/19 11:43:28;;;;;;;9.60;7.10;;;;;;;;;;4340027;32;318542;-81
2023/05/19 11:45:55;;;;;;;14.23;7.65;;;;;;;;;;4352589;32;317874;-80
2023/05/19 11:48:22;;;;;;;10.40;7.75;;;;;;;;;;4339379;32;318322;-81
2023/05/19 11:50:49;;;;;;;12.57;7.07;;;;;;;;;;4352060;32;318396;-78
2023/05/19 11:53:18;;;;;;;16.98;7.75;;;;;;;;;;4343077;32;318404;-80
2023/05/19 11:55:46;;;;;;;14.35;7.10;;;;;;;;;;4350337;32;318498;-79
2023/05/19 11:58:12;;;;;;;10.68;7.37;;;;;;;;;;4339007;32;318762;-79
2023/05/19 12:00:44;;;;;;;10.68;6.47;;;;;;;;;;4333309;32;417575;-81
2023/05/19 12:03:11;;;;;;;11.65;7.30;;;;;;;;;;4344570;32;318719;-79
2023/05/19 12:05:41;;;;;;;9.20;6.95;;;;;;;;;;4328735;32;417910;-79
2023/05/19 12:08:08;;;;;;;13.40;7.32;;;;;;;;;;4339348;32;317527;-79
2023/05/19 12:10:35;;;;;;;13.50;7.57;;;;;;;;;;4335234;32;318344;-79
2023/05/19 12:13:03;;;;;;;12.48;7.75;;;;;;;;;;4338132;32;318674;-80
2023/05/19 12:15:32;;;;;;;10.50;7.95;;;;;;;;;;4334451;32;318276;-80
2023/05/19 12:18:01;;;;;;;9.30;7.85;;;;;;;;;;4339184;32;317806;-81
2023/05/19 12:20:30;;;;;;;10.45;8.27;;;;;;;;;;4328076;32;317374;-80
2023/05/19 12:22:58;;;;;;;9.93;7.07;;;;;;;;;;4339273;32;317935;-80
2023/05/19 12:25:25;;;;;;;20.60;7.40;;;;;;;;;;4328396;32;317396;-79
2023/05/19 12:27:54;;;;;;;13.18;8.52;;;;;;;;;;4338057;32;318514;-80
2023/05/19 12:30:26;;;;;;;12.23;7.60;;;;;;;;;;4328770;32;318866;-80
2023/05/19 12:32:53;;;;;;;15.57;7.32;;;;;;;;;;4337700;32;318360;-80
2023/05/19 12:35:26;;;;;;;16.73;7.50;;;;;;;;;;4329208;32;318577;-80
2023/05/19 12:37:53;;;;;;;10.95;7.45;;;;;;;;;;4337947;32;318245;-80
2023/05/19 12:40:20;;;;;;;13.13;7.78;;;;;;;;;;4328207;32;318303;-80
2023/05/19 12:42:47;;;;;;;10.63;8.00;;;;;;;;;;4348984;32;318349;-80
2023/05/19 12:45:14;;;;;;;16.17;7.87;;;;;;;;;;4327805;32;318347;-81
2023/05/19 12:47:40;;;;;;;12.23;7.72;;;;;;;;;;4338809;32;318465;-80
2023/05/19 12:50:09;;;;;;;15.45;7.20;;;;;;;;;;4338954;32;318269;-80
2023/05/19 12:52:45;;;;;;;8.95;6.65;;;;;;;;;;4327101;32;318343;-80
2023/05/19 12:55:13;;;;;;;10.77;7.12;;;;;;;;;;4338411;32;316576;-80
2023/05/19 12:57:43;;;;;;;13.02;7.35;;;;;;;;;;4340456;32;419360;-80
2023/05/19 13:00:16;;;;;;;17.85;7.12;;;;;;;;;;4348855;32;318321;-80
2023/05/19 13:02:56;;;;;;;15.43;7.00;;;;;;;;;;4325780;32;418649;-79
2023/05/19 13:05:23;;;;;;;10.63;7.82;;;;;;;;;;4328974;32;318452;-80
2023/05/19 13:07:56;;;;;;;14.45;7.57;;;;;;;;;;4338501;32;317610;-80
2023/05/19 13:10:22;;;;;;;9.48;6.65;;;;;;;;;;4328703;32;318767;-80
2023/05/19 13:12:49;;;;;;;11.77;7.30;;;;;;;;;;4341077;32;317224;-79
2023/05/19 13:15:16;;;;;;;16.45;6.68;;;;;;;;;;4328815;32;318584;-80
2023/05/19 13:17:45;;;;;;;11.65;6.25;;;;;;;;;;4339953;32;333842;-80
2023/05/19 13:20:12;;;;;;;13.95;6.93;;;;;;;;;;4352962;32;318297;-79
2023/05/19 13:22:39;;;;;;;20.70;6.40;;;;;;;;;;4337648;32;415976;-79
2023/05/19 13:25:08;;;;;;;7.50;5.87;;;;;;;;;;4353291;32;318104;-81
2023/05/19 13:27:35;;;;;;;11.70;6.30;;;;;;;;;;4345147;32;317086;-80
2023/05/19 13:30:01;;;;;;;13.82;7.55;;;;;;;;;;4343682;32;317527;-80
2023/05/19 13:32:28;;;;;;;11.95;8.15;;;;;;;;;;4328567;32;318155;-80
2023/05/19 13:34:55;;;;;;;12.25;7.07;;;;;;;;;;4337693;32;318841;-80
2023/05/19 13:37:22;;;;;;;10.68;7.35;;;;;;;;;;4328496;32;318266;-80
2023/05/19 13:39:49;;;;;;;8.57;6.53;;;;;;;;;;4336650;32;317747;-80
2023/05/19 13:42:17;;;;;;;10.85;6.75;;;;;;;;;;4327265;32;317311;-81
2023/05/19 13:44:44;;;;;;;13.77;7.97;;;;;;;;;;4338624;32;317943;-81
2023/05/19 13:47:11;;;;;;;7.93;6.65;;;;;;;;;;4338296;32;318276;-80
2023/05/19 13:49:38;;;;;;;9.60;7.05;;;;;;;;;;4339467;32;417551;-83
2023/05/19 13:52:06;;;;;;;9.95;7.25;;;;;;;;;;4364478;32;317168;-80
2023/05/19 13:54:33;;;;;;;16.02;8.15;;;;;;;;;;4356681;32;317124;-80
2023/05/19 13:57:00;;;;;;;11.38;7.97;;;;;;;;;;4367432;32;318408;-80
2023/05/19 13:59:28;;;;;;;10.77;7.70;;;;;;;;;;4352775;32;318452;-79
2023/05/19 14:01:55;;;;;;;11.65;7.90;;;;;;;;;;4351159;32;318221;-84
2023/05/19 14:04:22;;;;;;;11.85;8.00;;;;;;;;;;4341422;32;350198;-81
2023/05/19 14:06:49;;;;;;;8.68;7.78;;;;;;;;;;4358873;32;318221;-80
2023/05/19 14:09:15;;;;;;;15.50;7.55;;;;;;;;;;4356548;32;317235;-82
2023/05/19 14:11:42;;;;;;;14.15;8.57;;;;;;;;;;4366318;32;318075;-81
2023/05/19 14:14:09;;;;;;;14.48;9.05;;;;;;;;;;4364061;32;318652;-82
2023/05/19 14:16:37;;;;;;;13.60;8.30;;;;;;;;;;4341427;32;317809;-83
2023/05/19 14:19:04;;;;;;;15.70;8.88;;;;;;;;;;4351701;32;318531;-80
2023/05/19 14:21:31;;;;;;;13.38;7.90;;;;;;;;;;4341961;32;318309;-85
2023/05/19 14:23:58;;;;;;;17.02;7.93;;;;;;;;;;4351286;32;348681;-80
2023/05/19 14:26:25;;;;;;;15.55;8.85;;;;;;;;;;4342488;32;318539;-80
2023/05/19 14:28:51;;;;;;;16.05;8.68;;;;;;;;;;4352208;32;318351;-85